createdAt,value
2022-08-08T00:03:31.242Z,100804.72
2022-08-08T00:14:17.166Z,100808.53
2022-08-08T00:24:37.696Z,100809.28
2022-08-08T00:35:06.191Z,100812.28
2022-08-08T00:45:32.199Z,100811.22
2022-08-08T00:56:16.402Z,100807.38
2022-08-08T01:06:27.683Z,100822.34
2022-08-08T01:16:55.100Z,100805.47
2022-08-08T01:27:16.192Z,100796.31
2022-08-08T01:37:56.597Z,100806.88
2022-08-08T01:48:48.268Z,100796.75
2022-08-08T01:59:19.634Z,100795.91
2022-08-08T02:10:02.081Z,100798.38
2022-08-08T02:20:16.170Z,100802.41
2022-08-08T02:31:54.218Z,100800.38
2022-08-08T02:42:07.887Z,100810.16
2022-08-08T02:52:34.912Z,100806.63
2022-08-08T03:03:09.273Z,100817.31
2022-08-08T03:15:53.518Z,100824.50
2022-08-08T03:23:59.842Z,100823.19
2022-08-08T03:34:07.086Z,100809.50
2022-08-08T03:44:17.610Z,100810.69
2022-08-08T03:54:41.637Z,100807.69
2022-08-08T04:04:48.717Z,100823.03
2022-08-08T04:14:52.725Z,100841.88
2022-08-08T04:24:55.790Z,100834.44
2022-08-08T04:34:59.090Z,100853.06
2022-08-08T04:45:09.482Z,100867.22
2022-08-08T04:55:14.640Z,100872.16
2022-08-08T05:05:20.348Z,100884.63
2022-08-08T05:16:52.824Z,100865.94
2022-08-08T05:26:06.503Z,100873.59
2022-08-08T05:36:10.948Z,100875.97
2022-08-08T05:46:29.801Z,100875.81
2022-08-08T05:56:47.482Z,100863.06
2022-08-08T06:07:01.878Z,100887.56
2022-08-08T06:17:07.205Z,100896.06
2022-08-08T06:27:33.126Z,100897.66
2022-08-08T06:37:40.255Z,100887.34
2022-08-08T06:47:58.340Z,100889.47
2022-08-08T06:58:07.601Z,100890.59
2022-08-08T07:08:26.955Z,100899.00
2022-08-08T07:18:49.111Z,100891.44
2022-08-08T07:28:56.553Z,100902.88
2022-08-08T07:39:02.234Z,100891.56
2022-08-08T07:49:09.273Z,100885.00
2022-08-08T07:59:16.345Z,100890.47
2022-08-08T08:09:26.413Z,100889.56
2022-08-08T08:19:45.863Z,100890.34
2022-08-08T08:29:53.202Z,100904.56
2022-08-08T08:40:01.196Z,100889.75
2022-08-08T08:50:31.786Z,100887.88
2022-08-08T09:01:04.782Z,100885.56
2022-08-08T09:10:59.513Z,100899.28
2022-08-08T09:21:59.849Z,100888.16
2022-08-08T09:32:03.775Z,100884.72
2022-08-08T09:42:26.013Z,100881.38
2022-08-08T09:52:57.651Z,100883.38
2022-08-08T10:02:57.601Z,100871.13
2022-08-08T10:13:14.266Z,100871.13
2022-08-08T10:23:42.278Z,100864.25
2022-08-08T10:34:19.474Z,100871.63
2022-08-08T10:44:10.628Z,100866.09
2022-08-08T10:54:24.831Z,100861.22
2022-08-08T11:04:29.839Z,100854.34
2022-08-08T11:14:52.117Z,100831.06
2022-08-08T11:25:02.002Z,100825.59
2022-08-08T11:35:37.669Z,100821.06
2022-08-08T11:46:06.793Z,100806.81
2022-08-08T11:56:06.667Z,100803.75
2022-08-08T12:06:19.133Z,100799.25
2022-08-08T12:16:30.780Z,100787.31
2022-08-08T12:26:50.087Z,100784.31
2022-08-08T12:37:05.534Z,100780.25
2022-08-08T12:48:05.016Z,100764.34
2022-08-08T12:58:09.986Z,100760.44
2022-08-08T13:08:21.387Z,100761.69
2022-08-08T13:18:27.357Z,100766.25
2022-08-08T13:28:31.902Z,100766.63
2022-08-08T13:38:39.917Z,100757.06
2022-08-08T13:48:47.814Z,100753.19
2022-08-08T13:59:10.648Z,100745.81
2022-08-08T14:09:24.814Z,100745.41
2022-08-08T14:19:57.169Z,100750.56
2022-08-08T14:30:17.916Z,100762.84
2022-08-08T14:40:25.824Z,100765.34
2022-08-08T14:50:38.940Z,100765.72
2022-08-08T15:00:44.392Z,100769.59
2022-08-08T15:10:47.954Z,100774.22
2022-08-08T15:20:52.562Z,100781.06
2022-08-08T15:30:56.498Z,100795.06
2022-08-08T15:41:00.620Z,100809.53
2022-08-08T15:51:06.075Z,100805.72
2022-08-08T16:01:09.683Z,100820.53
2022-08-08T16:13:11.481Z,100818.88
2022-08-08T16:21:38.117Z,100810.94
2022-08-08T16:31:49.553Z,100815.66
2022-08-08T16:42:01.515Z,100833.25
2022-08-08T16:55:03.235Z,100839.19
2022-08-08T17:02:38.193Z,100863.63
2022-08-08T17:12:52.651Z,100864.78
2022-08-08T17:23:16.619Z,100876.06
2022-08-08T17:34:36.297Z,100890.38
2022-08-08T17:44:01.660Z,100897.31
2022-08-08T17:54:04.987Z,100903.47
2022-08-08T18:04:09.085Z,100923.47
2022-08-08T18:14:21.907Z,100951.41
2022-08-08T18:24:26.924Z,100962.06
2022-08-08T18:34:33.968Z,100984.66
2022-08-08T18:44:36.499Z,100974.59
2022-08-08T18:54:39.498Z,100972.19
2022-08-08T19:04:46.479Z,100987.09
2022-08-08T19:14:49.854Z,100995.84
2022-08-08T19:26:01.794Z,100988.91
2022-08-08T19:35:15.860Z,100985.69
2022-08-08T19:45:58.255Z,100988.50
2022-08-08T19:55:45.477Z,100996.84
2022-08-08T20:06:14.152Z,100993.56
2022-08-08T20:16:18.937Z,100982.88
2022-08-08T20:26:27.302Z,100991.78
2022-08-08T20:36:32.565Z,101006.88
2022-08-08T20:46:35.644Z,100989.69
2022-08-08T20:57:16.087Z,100987.06
2022-08-08T21:07:08.345Z,100987.31
2022-08-08T21:17:27.809Z,101003.75
2022-08-08T21:28:06.362Z,101011.22
2022-08-08T21:37:54.346Z,101004.00
2022-08-08T21:48:20.076Z,100996.91
2022-08-08T21:58:19.445Z,100999.78
2022-08-08T22:08:27.100Z,101013.19
2022-08-08T22:18:39.566Z,101007.19
2022-08-08T22:29:14.593Z,100998.28
2022-08-08T22:39:06.612Z,100994.19
2022-08-08T22:49:10.010Z,100979.28
2022-08-08T22:59:12.593Z,100983.25
2022-08-08T23:09:21.008Z,100979.97
2022-08-08T23:19:33.089Z,100997.28
2022-08-08T23:29:36.757Z,100989.31
2022-08-08T23:39:42.256Z,100995.84
2022-08-08T23:50:02.784Z,100993.25
